createdAt,value
2017-05-02T00:01:54.844Z,101626
2017-05-02T00:04:23.768Z,101616
2017-05-02T00:06:52.709Z,101619
2017-05-02T00:09:21.632Z,101625
2017-05-02T00:11:51.297Z,101631
2017-05-02T00:14:20.251Z,101626
2017-05-02T00:16:49.168Z,101620
2017-05-02T00:19:18.078Z,101624
2017-05-02T00:21:47.025Z,101620
2017-05-02T00:24:15.947Z,101620
2017-05-02T00:26:44.853Z,101617
2017-05-02T00:29:13.808Z,101615
2017-05-02T00:31:42.731Z,101620
2017-05-02T00:34:11.654Z,101612
2017-05-02T00:36:40.589Z,101616
2017-05-02T00:39:09.489Z,101620
2017-05-02T00:41:38.417Z,101618
2017-05-02T00:44:07.729Z,101617
2017-05-02T00:46:36.648Z,101615
2017-05-02T00:49:06.293Z,101616
2017-05-02T00:51:35.240Z,101626
2017-05-02T00:54:04.149Z,101628
2017-05-02T00:56:33.797Z,101619
2017-05-02T00:59:02.747Z,101618
2017-05-02T01:01:31.656Z,101616
2017-05-02T01:04:01.302Z,101608
2017-05-02T01:06:30.247Z,101604
2017-05-02T01:08:59.916Z,101612
2017-05-02T01:11:28.845Z,101599
2017-05-02T01:13:58.542Z,101603
2017-05-02T01:16:27.475Z,101602
2017-05-02T01:18:56.385Z,101602
2017-05-02T01:21:25.339Z,101604
2017-05-02T01:23:54.984Z,101607
2017-05-02T01:26:23.907Z,101604
2017-05-02T01:28:52.837Z,101603
2017-05-02T01:31:22.503Z,101605
2017-05-02T01:33:51.424Z,101603
2017-05-02T01:36:21.120Z,101618
2017-05-02T01:38:50.028Z,101601
2017-05-02T01:41:19.692Z,101602
2017-05-02T01:43:48.644Z,101615
2017-05-02T01:46:18.289Z,101615
2017-05-02T01:48:47.215Z,101613
2017-05-02T01:51:16.148Z,101614
2017-05-02T01:53:45.058Z,101620
2017-05-02T01:56:13.979Z,101616
2017-05-02T01:58:42.940Z,101623
2017-05-02T02:01:11.841Z,101612
2017-05-02T02:03:40.751Z,101612
2017-05-02T02:06:09.700Z,101616
2017-05-02T02:08:38.609Z,101617
2017-05-02T02:11:07.535Z,101620
2017-05-02T02:13:36.488Z,101617
2017-05-02T02:16:05.417Z,101621
2017-05-02T02:18:34.344Z,101617
2017-05-02T02:21:04.051Z,101617
2017-05-02T02:23:33.701Z,101613
2017-05-02T02:26:02.622Z,101615
2017-05-02T02:28:31.561Z,101619
2017-05-02T02:31:00.468Z,101617
2017-05-02T02:33:29.378Z,101614
2017-05-02T02:35:58.330Z,101606
2017-05-02T02:38:28.012Z,101603
2017-05-02T02:40:56.935Z,101620
2017-05-02T02:43:26.624Z,101609
2017-05-02T02:45:55.550Z,101604
2017-05-02T02:48:24.476Z,101602
2017-05-02T02:50:53.405Z,101609
2017-05-02T02:53:22.310Z,101613
2017-05-02T02:55:51.953Z,101609
2017-05-02T02:58:20.879Z,101614
2017-05-02T03:00:49.804Z,101613
2017-05-02T03:03:19.472Z,101617
2017-05-02T03:05:48.405Z,101621
2017-05-02T03:08:18.068Z,101621
2017-05-02T03:10:46.982Z,101627
2017-05-02T03:13:16.047Z,101628
2017-05-02T03:15:44.953Z,101624
2017-05-02T03:18:13.856Z,101620
2017-05-02T03:20:42.815Z,101616
2017-05-02T03:23:11.733Z,101613
2017-05-02T03:25:40.642Z,101614
2017-05-02T03:28:09.576Z,101618
2017-05-02T03:30:38.507Z,101619
2017-05-02T03:33:07.404Z,101609
2017-05-02T03:35:36.333Z,101618
2017-05-02T03:38:05.976Z,101625
2017-05-02T03:40:34.895Z,101627
2017-05-02T03:43:03.964Z,101627
2017-05-02T03:45:32.874Z,101629
2017-05-02T03:48:01.794Z,101632
2017-05-02T03:50:30.738Z,101621
2017-05-02T03:52:59.642Z,101636
2017-05-02T03:55:28.553Z,101640
2017-05-02T03:57:57.503Z,101625
2017-05-02T04:00:26.419Z,101637
2017-05-02T04:02:55.340Z,101632
2017-05-02T04:05:24.285Z,101639
2017-05-02T04:07:53.212Z,101629
2017-05-02T04:10:22.121Z,101641
2017-05-02T04:12:51.191Z,101632
2017-05-02T04:15:20.111Z,101637
2017-05-02T04:17:49.046Z,101643
2017-05-02T04:20:18.000Z,101641
2017-05-02T04:22:46.928Z,101645
2017-05-02T04:25:15.847Z,101645
2017-05-02T04:27:44.795Z,101638
2017-05-02T04:30:13.704Z,101640
2017-05-02T04:32:42.609Z,101649
2017-05-02T04:35:11.541Z,101644
2017-05-02T04:37:40.464Z,101664
2017-05-02T04:40:09.386Z,101647
2017-05-02T04:42:38.330Z,101649
2017-05-02T04:45:07.997Z,101648
2017-05-02T04:47:36.920Z,101651
2017-05-02T04:50:05.882Z,101646
2017-05-02T04:52:34.789Z,101646
2017-05-02T04:55:03.696Z,101654
2017-05-02T04:57:32.633Z,101638
2017-05-02T05:00:01.561Z,101642
2017-05-02T05:02:30.484Z,101648
2017-05-02T05:05:00.156Z,101650
2017-05-02T05:07:29.079Z,101646
2017-05-02T05:09:58.748Z,101648
2017-05-02T05:12:27.712Z,101650
2017-05-02T05:14:56.616Z,101651
2017-05-02T05:17:25.521Z,101653
2017-05-02T05:19:54.472Z,101655
2017-05-02T05:22:23.401Z,101654
2017-05-02T05:24:52.329Z,101656
2017-05-02T05:27:21.271Z,101666
2017-05-02T05:29:50.177Z,101662
2017-05-02T05:32:19.085Z,101663
2017-05-02T05:34:48.039Z,101654
2017-05-02T05:37:16.960Z,101649
2017-05-02T05:39:45.883Z,101662
2017-05-02T05:42:14.812Z,101659
2017-05-02T05:44:43.707Z,101662
2017-05-02T05:47:12.618Z,101657
2017-05-02T05:49:42.718Z,101658
2017-05-02T05:52:11.646Z,101660
2017-05-02T05:54:40.582Z,101664
2017-05-02T05:57:09.526Z,101650
2017-05-02T05:59:38.432Z,101661
2017-05-02T06:02:07.361Z,101655
2017-05-02T06:04:36.296Z,101669
2017-05-02T06:07:05.223Z,101663
2017-05-02T06:09:34.872Z,101653
2017-05-02T06:12:03.805Z,101663
2017-05-02T06:14:32.708Z,101658
2017-05-02T06:17:01.631Z,101650
2017-05-02T06:19:30.997Z,101661
2017-05-02T06:21:59.910Z,101671
2017-05-02T06:24:29.571Z,101663
2017-05-02T06:26:58.523Z,101672
2017-05-02T06:29:27.436Z,101673
2017-05-02T06:31:56.345Z,101670
2017-05-02T06:34:25.286Z,101671
2017-05-02T06:36:54.218Z,101666
2017-05-02T06:39:23.147Z,101669
2017-05-02T06:41:52.114Z,101669
2017-05-02T06:44:21.023Z,101661
2017-05-02T06:46:49.934Z,101666
2017-05-02T06:49:18.907Z,101673
2017-05-02T06:51:47.843Z,101676
2017-05-02T06:54:17.510Z,101673
2017-05-02T06:56:46.447Z,101670
2017-05-02T06:59:15.358Z,101677
2017-05-02T07:01:44.272Z,101670
2017-05-02T07:04:13.228Z,101681
2017-05-02T07:06:42.149Z,101674
2017-05-02T07:09:11.075Z,101682
2017-05-02T07:11:40.004Z,101685
2017-05-02T07:14:08.917Z,101685
2017-05-02T07:16:37.843Z,101683
2017-05-02T07:19:06.773Z,101685
2017-05-02T07:21:35.692Z,101685
2017-05-02T07:24:04.593Z,101673
2017-05-02T07:26:33.927Z,101674
2017-05-02T07:29:02.838Z,101680
2017-05-02T07:31:32.513Z,101671
2017-05-02T07:34:01.452Z,101682
2017-05-02T07:36:31.120Z,101680
2017-05-02T07:39:00.043Z,101682
2017-05-02T07:41:29.717Z,101677
2017-05-02T07:43:58.644Z,101676
2017-05-02T07:46:28.297Z,101672
2017-05-02T07:48:57.263Z,101670
2017-05-02T07:51:26.192Z,101672
2017-05-02T07:53:55.097Z,101672
2017-05-02T07:56:24.407Z,101677
2017-05-02T07:58:53.329Z,101676
2017-05-02T08:01:22.981Z,101670
2017-05-02T08:03:51.927Z,101671
2017-05-02T08:06:21.587Z,101677
2017-05-02T08:08:51.248Z,101671
2017-05-02T08:11:20.205Z,101665
2017-05-02T08:13:49.133Z,101673
2017-05-02T08:16:18.049Z,101670
2017-05-02T08:18:47.005Z,101674
2017-05-02T08:21:15.926Z,101674
2017-05-02T08:23:44.834Z,101668
2017-05-02T08:26:13.791Z,101674
2017-05-02T08:28:42.719Z,101676
2017-05-02T08:31:11.636Z,101672
2017-05-02T08:33:41.318Z,101669
2017-05-02T08:36:10.225Z,101666
2017-05-02T08:38:39.893Z,101668
2017-05-02T08:41:08.824Z,101665
2017-05-02T08:43:38.488Z,101674
2017-05-02T08:46:07.399Z,101674
2017-05-02T08:48:36.359Z,101668
2017-05-02T08:51:05.270Z,101669
2017-05-02T08:53:34.197Z,101674
2017-05-02T08:56:03.160Z,101665
2017-05-02T08:58:32.089Z,101662
2017-05-02T09:01:01.744Z,101664
2017-05-02T09:03:30.708Z,101663
2017-05-02T09:05:59.641Z,101662
2017-05-02T09:08:28.548Z,101650
2017-05-02T09:10:57.504Z,101665
2017-05-02T09:13:26.434Z,101660
2017-05-02T09:15:55.341Z,101652
2017-05-02T09:18:24.281Z,101644
2017-05-02T09:20:53.211Z,101649
2017-05-02T09:23:22.117Z,101655
2017-05-02T09:25:51.044Z,101668
2017-05-02T09:28:19.981Z,101655
2017-05-02T09:30:48.889Z,101664
2017-05-02T09:33:18.561Z,101664
2017-05-02T09:35:47.491Z,101669
2017-05-02T09:38:17.143Z,101667
2017-05-02T09:40:46.082Z,101659
2017-05-02T09:43:14.990Z,101662
2017-05-02T09:45:44.662Z,101655
2017-05-02T09:48:13.612Z,101660
2017-05-02T09:50:42.532Z,101650
2017-05-02T09:53:11.459Z,101655
2017-05-02T09:55:40.412Z,101650
2017-05-02T09:58:09.329Z,101657
2017-05-02T10:00:38.267Z,101642
2017-05-02T10:03:07.206Z,101642
2017-05-02T10:05:36.122Z,101653
2017-05-02T10:08:05.028Z,101646
2017-05-02T10:10:34.716Z,101635
2017-05-02T10:13:03.629Z,101644
2017-05-02T10:15:33.293Z,101644
2017-05-02T10:18:02.250Z,101656
2017-05-02T10:20:31.186Z,101660
2017-05-02T10:23:00.108Z,101655
2017-05-02T10:25:29.799Z,101663
2017-05-02T10:27:58.709Z,101660
2017-05-02T10:30:28.383Z,101663
2017-05-02T10:32:57.339Z,101655
2017-05-02T10:35:26.264Z,101643
2017-05-02T10:37:55.187Z,101652
2017-05-02T10:40:24.121Z,101647
2017-05-02T10:42:53.051Z,101642
2017-05-02T10:45:21.957Z,101650
2017-05-02T10:47:50.889Z,101645
2017-05-02T10:50:19.817Z,101648
2017-05-02T10:52:48.735Z,101648
2017-05-02T10:55:17.695Z,101640
2017-05-02T10:57:46.604Z,101640
2017-05-02T11:00:15.528Z,101647
2017-05-02T11:02:45.213Z,101632
2017-05-02T11:05:14.136Z,101644
2017-05-02T11:07:43.796Z,101639
2017-05-02T11:10:12.775Z,101632
2017-05-02T11:12:41.699Z,101630
2017-05-02T11:15:10.622Z,101643
2017-05-02T11:17:40.324Z,101637
2017-05-02T11:20:09.993Z,101636
2017-05-02T11:22:38.920Z,101638
2017-05-02T11:25:07.863Z,101640
2017-05-02T11:27:36.795Z,101642
2017-05-02T11:30:05.719Z,101641
2017-05-02T11:32:35.398Z,101636
2017-05-02T11:35:04.329Z,101627
2017-05-02T11:37:33.255Z,101638
2017-05-02T11:40:02.212Z,101631
2017-05-02T11:42:31.140Z,101635
2017-05-02T11:45:00.053Z,101642
2017-05-02T11:47:28.984Z,101646
2017-05-02T11:49:58.648Z,101642
2017-05-02T11:52:27.554Z,101632
2017-05-02T11:54:56.480Z,101641
2017-05-02T11:57:26.129Z,101635
2017-05-02T11:59:55.041Z,101645
2017-05-02T12:02:23.977Z,101641
2017-05-02T12:04:52.911Z,101626
2017-05-02T12:07:21.814Z,101637
2017-05-02T12:09:50.768Z,101629
2017-05-02T12:12:19.694Z,101635
2017-05-02T12:14:48.613Z,101645
2017-05-02T12:17:17.575Z,101645
2017-05-02T12:19:46.486Z,101640
2017-05-02T12:22:15.402Z,101639
2017-05-02T12:24:45.095Z,101638
2017-05-02T12:27:14.020Z,101639
2017-05-02T12:29:42.933Z,101629
2017-05-02T12:32:11.890Z,101629
2017-05-02T12:34:41.540Z,101625
2017-05-02T12:37:10.449Z,101625
2017-05-02T12:39:39.386Z,101631
2017-05-02T12:42:09.033Z,101621
2017-05-02T12:44:37.957Z,101625
2017-05-02T12:47:06.892Z,101621
2017-05-02T12:49:35.800Z,101626
2017-05-02T12:52:04.709Z,101643
2017-05-02T12:57:02.592Z,101638
2017-05-02T12:59:31.510Z,101638
2017-05-02T13:02:00.467Z,101632
2017-05-02T13:04:29.369Z,101639
2017-05-02T13:06:58.299Z,101634
2017-05-02T13:09:27.246Z,101637
2017-05-02T13:11:56.168Z,101647
2017-05-02T13:14:25.101Z,101647
2017-05-02T13:16:54.043Z,101642
2017-05-02T13:19:22.955Z,101646
2017-05-02T13:21:51.888Z,101648
2017-05-02T13:24:20.845Z,101655
2017-05-02T13:26:49.768Z,101658
2017-05-02T13:29:18.697Z,101651
2017-05-02T13:31:47.633Z,101645
2017-05-02T13:34:18.250Z,101658
2017-05-02T13:36:47.185Z,101657
2017-05-02T13:39:16.140Z,101657
2017-05-02T13:41:45.076Z,101659
2017-05-02T13:44:13.999Z,101663
2017-05-02T13:46:42.960Z,101669
2017-05-02T13:49:11.873Z,101661
2017-05-02T13:51:40.798Z,101666
2017-05-02T13:54:09.757Z,101665
2017-05-02T13:56:38.686Z,101670
2017-05-02T13:59:07.623Z,101670
2017-05-02T14:01:36.580Z,101682
2017-05-02T14:04:06.251Z,101678
2017-05-02T14:06:35.161Z,101676
2017-05-02T14:09:04.108Z,101682
2017-05-02T14:11:33.021Z,101688
2017-05-02T14:14:01.948Z,101690
2017-05-02T14:16:30.882Z,101696
2017-05-02T14:18:59.809Z,101695
2017-05-02T14:21:28.717Z,101696
2017-05-02T14:23:57.667Z,101697
2017-05-02T14:26:26.580Z,101699
2017-05-02T14:28:55.493Z,101704
2017-05-02T14:31:24.471Z,101707
2017-05-02T14:33:53.403Z,101718
2017-05-02T14:36:23.069Z,101730
2017-05-02T14:38:52.010Z,101735
2017-05-02T14:41:21.657Z,101726
2017-05-02T14:43:50.588Z,101732
2017-05-02T14:46:19.535Z,101740
2017-05-02T14:48:48.448Z,101754
2017-05-02T14:51:17.356Z,101742
2017-05-02T14:53:46.289Z,101743
2017-05-02T14:56:15.196Z,101751
2017-05-02T14:58:44.119Z,101753
2017-05-02T15:01:13.054Z,101752
2017-05-02T15:03:42.418Z,101758
2017-05-02T15:06:11.330Z,101758
2017-05-02T15:08:41.004Z,101745
2017-05-02T15:11:09.931Z,101763
2017-05-02T15:13:39.600Z,101768
2017-05-02T15:16:08.542Z,101769
2017-05-02T15:18:37.460Z,101769
2017-05-02T15:21:06.376Z,101769
2017-05-02T15:23:36.310Z,101762
2017-05-02T15:26:05.240Z,101776
2017-05-02T15:28:34.144Z,101768
2017-05-02T15:31:03.090Z,101778
2017-05-02T15:33:32.000Z,101777
2017-05-02T15:36:01.779Z,101783
2017-05-02T15:38:30.724Z,101787
2017-05-02T15:40:59.641Z,101790
2017-05-02T15:43:28.549Z,101792
2017-05-02T15:45:57.484Z,101789
2017-05-02T15:48:26.407Z,101800
2017-05-02T15:50:55.319Z,101799
2017-05-02T15:53:24.286Z,101793
2017-05-02T15:55:53.220Z,101803
2017-05-02T15:58:22.156Z,101805
2017-05-02T16:00:51.829Z,101796
2017-05-02T16:03:20.753Z,101802
2017-05-02T16:05:49.679Z,101804
2017-05-02T16:08:18.634Z,101796
2017-05-02T16:10:47.578Z,101802
2017-05-02T16:13:16.515Z,101803
2017-05-02T16:15:45.452Z,101799
2017-05-02T16:18:14.502Z,101807
2017-05-02T16:20:43.428Z,101798
2017-05-02T16:23:12.356Z,101802
2017-05-02T16:25:41.261Z,101801
2017-05-02T16:28:10.187Z,101786
2017-05-02T16:30:39.860Z,101794
2017-05-02T16:33:08.765Z,101792
2017-05-02T16:35:37.723Z,101788
2017-05-02T16:38:06.674Z,101789
2017-05-02T16:40:36.343Z,101789
2017-05-02T16:43:05.260Z,101785
2017-05-02T16:45:34.206Z,101784
2017-05-02T16:48:03.183Z,101792
2017-05-02T16:50:32.108Z,101790
2017-05-02T16:53:01.061Z,101786
2017-05-02T16:55:29.976Z,101788
2017-05-02T16:57:58.906Z,101785
2017-05-02T17:00:27.845Z,101782
2017-05-02T17:02:56.806Z,101775
2017-05-02T17:05:25.728Z,101786
2017-05-02T17:07:54.675Z,101784
2017-05-02T17:10:23.584Z,101776
2017-05-02T17:12:53.265Z,101773
2017-05-02T17:15:22.205Z,101780
2017-05-02T17:17:51.890Z,101785
2017-05-02T17:20:20.818Z,101791
2017-05-02T17:22:49.789Z,101782
2017-05-02T17:25:19.437Z,101788
2017-05-02T17:27:48.365Z,101790
2017-05-02T17:30:17.326Z,101791
2017-05-02T17:32:46.242Z,101796
2017-05-02T17:35:15.172Z,101796
2017-05-02T17:37:44.849Z,101788
2017-05-02T17:40:13.778Z,101786
2017-05-02T17:42:43.443Z,101787
2017-05-02T17:45:12.386Z,101789
2017-05-02T17:47:41.324Z,101796
2017-05-02T17:50:10.266Z,101794
2017-05-02T17:52:40.346Z,101795
2017-05-02T17:55:09.257Z,101789
2017-05-02T17:57:38.183Z,101803
2017-05-02T18:00:07.131Z,101802
2017-05-02T18:02:36.067Z,101809
2017-05-02T18:05:04.973Z,101794
2017-05-02T18:07:33.926Z,101804
2017-05-02T18:10:03.582Z,101807
2017-05-02T18:12:32.512Z,101803
2017-05-02T18:15:01.450Z,101800
2017-05-02T18:17:30.381Z,101797
2017-05-02T18:19:59.305Z,101810
2017-05-02T18:22:29.116Z,101802
2017-05-02T18:24:58.785Z,101802
2017-05-02T18:27:27.714Z,101799
2017-05-02T18:29:57.409Z,101804
2017-05-02T18:32:26.339Z,101802
2017-05-02T18:34:55.259Z,101804
2017-05-02T18:37:24.191Z,101805
2017-05-02T18:39:53.117Z,101803
2017-05-02T18:42:22.054Z,101797
2017-05-02T18:44:51.003Z,101806
2017-05-02T18:47:19.921Z,101799
2017-05-02T18:49:48.832Z,101803
2017-05-02T18:52:17.792Z,101807
2017-05-02T18:54:46.712Z,101808
2017-05-02T18:57:15.631Z,101799
2017-05-02T18:59:44.570Z,101807
2017-05-02T19:02:13.474Z,101800
2017-05-02T19:04:42.380Z,101802
2017-05-02T19:07:11.327Z,101808
2017-05-02T19:09:40.996Z,101803
2017-05-02T19:12:09.919Z,101810
2017-05-02T19:14:39.618Z,101814
2017-05-02T19:17:08.536Z,101810
2017-05-02T19:19:37.464Z,101816
2017-05-02T19:22:06.419Z,101807
2017-05-02T19:24:35.357Z,101823
2017-05-02T19:27:04.265Z,101813
2017-05-02T19:29:33.206Z,101822
2017-05-02T19:32:02.118Z,101805
2017-05-02T19:34:31.022Z,101815
2017-05-02T19:36:59.976Z,101822
2017-05-02T19:39:28.924Z,101827
2017-05-02T19:41:57.837Z,101813
2017-05-02T19:44:26.769Z,101815
2017-05-02T19:46:55.700Z,101825
2017-05-02T19:49:24.606Z,101813
2017-05-02T19:51:53.533Z,101814
2017-05-02T19:54:22.445Z,101811
2017-05-02T19:56:51.351Z,101814
2017-05-02T19:59:20.304Z,101808
2017-05-02T20:01:49.217Z,101814
2017-05-02T20:04:18.121Z,101818
2017-05-02T20:06:47.072Z,101821
2017-05-02T20:09:16.721Z,101813
2017-05-02T20:11:45.651Z,101813
2017-05-02T20:14:14.605Z,101820
2017-05-02T20:16:43.538Z,101823
2017-05-02T20:19:12.440Z,101807
2017-05-02T20:21:42.103Z,101823
2017-05-02T20:24:11.033Z,101819
2017-05-02T20:26:39.989Z,101812
2017-05-02T20:29:08.905Z,101825
2017-05-02T20:31:37.815Z,101821
2017-05-02T20:34:07.465Z,101825
2017-05-02T20:36:36.395Z,101837
2017-05-02T20:39:05.311Z,101828
2017-05-02T20:41:34.981Z,101820
2017-05-02T20:44:03.917Z,101820
2017-05-02T20:46:33.581Z,101826
2017-05-02T20:49:02.492Z,101827
2017-05-02T20:51:31.419Z,101815
2017-05-02T20:54:01.083Z,101830
2017-05-02T20:56:29.994Z,101838
2017-05-02T20:58:58.929Z,101844
2017-05-02T21:01:27.860Z,101844
2017-05-02T21:03:56.797Z,101847
2017-05-02T21:06:26.488Z,101847
2017-05-02T21:08:55.415Z,101845
2017-05-02T21:11:24.340Z,101845
2017-05-02T21:13:53.241Z,101859
2017-05-02T21:16:22.176Z,101854
2017-05-02T21:18:52.292Z,101852
2017-05-02T21:21:21.262Z,101863
2017-05-02T21:23:50.211Z,101855
2017-05-02T21:26:19.141Z,101863
2017-05-02T21:28:48.056Z,101856
2017-05-02T21:31:17.705Z,101863
2017-05-02T21:33:46.616Z,101858
2017-05-02T21:36:15.568Z,101861
2017-05-02T21:38:44.496Z,101856
2017-05-02T21:41:13.420Z,101859
2017-05-02T21:43:42.368Z,101851
2017-05-02T21:46:11.272Z,101851
2017-05-02T21:48:40.278Z,101858
2017-05-02T21:51:09.228Z,101854
2017-05-02T21:53:38.150Z,101861
2017-05-02T21:56:07.075Z,101871
2017-05-02T21:58:35.997Z,101860
2017-05-02T22:01:04.926Z,101861
2017-05-02T22:03:33.842Z,101871
2017-05-02T22:06:02.802Z,101870
2017-05-02T22:08:31.843Z,101869
2017-05-02T22:11:01.505Z,101869
2017-05-02T22:13:30.451Z,101863
2017-05-02T22:16:00.103Z,101860
2017-05-02T22:18:29.010Z,101860
2017-05-02T22:20:57.949Z,101870
2017-05-02T22:23:27.607Z,101860
2017-05-02T22:25:56.523Z,101858
2017-05-02T22:28:25.455Z,101861
2017-05-02T22:30:55.101Z,101860
2017-05-02T22:33:24.010Z,101862
2017-05-02T22:35:52.949Z,101865
2017-05-02T22:38:21.883Z,101864
2017-05-02T22:40:50.807Z,101862
2017-05-02T22:43:19.739Z,101863
2017-05-02T22:45:48.659Z,101847
2017-05-02T22:48:17.580Z,101862
2017-05-02T22:50:46.575Z,101861
2017-05-02T22:53:15.504Z,101857
2017-05-02T22:55:44.424Z,101844
2017-05-02T22:58:13.374Z,101855
2017-05-02T23:00:43.048Z,101848
2017-05-02T23:03:11.973Z,101853
2017-05-02T23:05:41.663Z,101843
2017-05-02T23:08:10.572Z,101841
2017-05-02T23:10:40.222Z,101835
2017-05-02T23:13:09.172Z,101838
2017-05-02T23:15:38.820Z,101837
2017-05-02T23:18:07.725Z,101849
2017-05-02T23:20:36.691Z,101846
2017-05-02T23:23:05.609Z,101835
2017-05-02T23:25:34.536Z,101840
2017-05-02T23:28:03.483Z,101843
2017-05-02T23:30:32.389Z,101847
2017-05-02T23:33:01.294Z,101838
2017-05-02T23:35:30.228Z,101849
2017-05-02T23:37:59.895Z,101849
2017-05-02T23:40:28.798Z,101845
2017-05-02T23:42:57.744Z,101836
2017-05-02T23:45:27.393Z,101839
2017-05-02T23:47:56.324Z,101852
2017-05-02T23:50:26.270Z,101848
2017-05-02T23:52:55.917Z,101843
2017-05-02T23:55:24.844Z,101840
2017-05-02T23:57:53.795Z,101853
